sensor_id;sensor_type;location;lat;lon;timestamp;pressure;altitude;pressure_sealevel;temperature;humidity
55550;BME280;41397;49.972;18.944;2022-12-05T00:00:38;102377.74;;;2.43;100.00
55550;BME280;41397;49.972;18.944;2022-12-05T00:03:43;102367.13;;;2.34;100.00
55550;BME280;41397;49.972;18.944;2022-12-05T00:06:45;102363.36;;;2.43;100.00
55550;BME280;41397;49.972;18.944;2022-12-05T00:09:46;102358.37;;;2.25;100.00
55550;BME280;41397;49.972;18.944;2022-12-05T00:12:47;102348.38;;;2.28;100.00
55550;BME280;41397;49.972;18.944;2022-12-05T00:15:49;102338.30;;;2.36;100.00
55550;BME280;41397;49.972;18.944;2022-12-05T00:18:51;102335.84;;;2.26;100.00
55550;BME280;41397;49.972;18.944;2022-12-05T00:21:52;102336.70;;;2.28;100.00
55550;BME280;41397;49.972;18.944;2022-12-05T00:24:53;102340.14;;;2.34;100.00
55550;BME280;41397;49.972;18.944;2022-12-05T00:27:55;102342.19;;;2.23;100.00
55550;BME280;41397;49.972;18.944;2022-12-05T00:30:56;102349.19;;;2.32;100.00
55550;BME280;41397;49.972;18.944;2022-12-05T00:34:01;102337.11;;;2.48;100.00
55550;BME280;41397;49.972;18.944;2022-12-05T00:37:03;102342.72;;;2.40;100.00
55550;BME280;41397;49.972;18.944;2022-12-05T00:40:05;102341.09;;;2.32;100.00
55550;BME280;41397;49.972;18.944;2022-12-05T00:43:06;102338.30;;;2.36;100.00
55550;BME280;41397;49.972;18.944;2022-12-05T00:46:11;102327.23;;;2.49;100.00
55550;BME280;41397;49.972;18.944;2022-12-05T00:49:12;102330.91;;;2.44;100.00
55550;BME280;41397;49.972;18.944;2022-12-05T00:52:14;102314.71;;;2.44;100.00
55550;BME280;41397;49.972;18.944;2022-12-05T00:55:15;102309.22;;;2.48;100.00
55550;BME280;41397;49.972;18.944;2022-12-05T00:58:16;102300.55;;;2.35;100.00
55550;BME280;41397;49.972;18.944;2022-12-05T01:01:20;102303.35;;;2.30;100.00
55550;BME280;41397;49.972;18.944;2022-12-05T01:04:24;102300.57;;;2.33;100.00
55550;BME280;41397;49.972;18.944;2022-12-05T01:07:25;102303.35;;;2.30;100.00
55550;BME280;41397;49.972;18.944;2022-12-05T01:10:27;102298.81;;;2.32;100.00
55550;BME280;41397;49.972;18.944;2022-12-05T01:13:29;102311.84;;;2.13;100.00
55550;BME280;41397;49.972;18.944;2022-12-05T01:16:33;102308.97;;;2.21;100.00
55550;BME280;41397;49.972;18.944;2022-12-05T01:19:35;102305.26;;;2.25;100.00
55550;BME280;41397;49.972;18.944;2022-12-05T01:22:36;102293.52;;;2.26;100.00
55550;BME280;41397;49.972;18.944;2022-12-05T01:25:42;102303.09;;;2.41;100.00
55550;BME280;41397;49.972;18.944;2022-12-05T01:28:44;102303.98;;;2.41;100.00
55550;BME280;41397;49.972;18.944;2022-12-05T01:31:46;102307.48;;;2.45;100.00
55550;BME280;41397;49.972;18.944;2022-12-05T01:34:47;102300.87;;;2.21;100.00
55550;BME280;41397;49.972;18.944;2022-12-05T01:37:48;102311.59;;;2.24;100.00
55550;BME280;41397;49.972;18.944;2022-12-05T01:41:02;102282.73;;;2.26;100.00
55550;BME280;41397;49.972;18.944;2022-12-05T01:47:16;102287.38;;;2.21;100.00
55550;BME280;41397;49.972;18.944;2022-12-05T01:50:17;102296.55;;;2.12;100.00
55550;BME280;41397;49.972;18.944;2022-12-05T01:53:19;102304.45;;;2.21;100.00
55550;BME280;41397;49.972;18.944;2022-12-05T01:56:21;102303.58;;;2.21;100.00
55550;BME280;41397;49.972;18.944;2022-12-05T01:59:24;102293.59;;;2.25;100.00
55550;BME280;41397;49.972;18.944;2022-12-05T02:02:28;102275.55;;;2.27;100.00
55550;BME280;41397;49.972;18.944;2022-12-05T02:05:35;102277.33;;;2.26;100.00
55550;BME280;41397;49.972;18.944;2022-12-05T02:08:37;102290.78;;;2.29;100.00
55550;BME280;41397;49.972;18.944;2022-12-05T02:11:51;102302.24;;;2.39;100.00
55550;BME280;41397;49.972;18.944;2022-12-05T02:18:48;102302.85;;;2.13;100.00
55550;BME280;41397;49.972;18.944;2022-12-05T02:34:43;102312.00;;;2.44;100.00
55550;BME280;41397;49.972;18.944;2022-12-05T02:47:25;102301.11;;;2.49;100.00
55550;BME280;41397;49.972;18.944;2022-12-05T02:50:34;102311.65;;;2.60;100.00
55550;BME280;41397;49.972;18.944;2022-12-05T02:53:37;102322.15;;;2.35;100.00
55550;BME280;41397;49.972;18.944;2022-12-05T02:56:43;102331.05;;;2.38;100.00
55550;BME280;41397;49.972;18.944;2022-12-05T02:59:44;102332.95;;;2.35;100.00
55550;BME280;41397;49.972;18.944;2022-12-05T03:02:47;102323.66;;;2.47;100.00
55550;BME280;41397;49.972;18.944;2022-12-05T03:09:12;102325.09;;;2.24;100.00
55550;BME280;41397;49.972;18.944;2022-12-05T03:12:21;102312.32;;;2.31;100.00
55550;BME280;41397;49.972;18.944;2022-12-05T03:15:33;102316.92;;;2.27;100.00
55550;BME280;41397;49.972;18.944;2022-12-05T03:18:43;102310.64;;;2.27;100.00
55550;BME280;41397;49.972;18.944;2022-12-05T03:21:52;102324.24;;;2.20;100.00
55550;BME280;41397;49.972;18.944;2022-12-05T03:24:57;102317.97;;;2.20;100.00
55550;BME280;41397;49.972;18.944;2022-12-05T03:28:06;102305.73;;;2.44;100.00
55550;BME280;41397;49.972;18.944;2022-12-05T03:31:12;102301.30;;;2.40;100.00
55550;BME280;41397;49.972;18.944;2022-12-05T03:34:20;102305.98;;;2.32;100.00
55550;BME280;41397;49.972;18.944;2022-12-05T03:37:34;102299.70;;;2.31;100.00
55550;BME280;41397;49.972;18.944;2022-12-05T03:40:46;102306.12;;;2.27;100.00
55550;BME280;41397;49.972;18.944;2022-12-05T03:43:56;102297.19;;;2.23;100.00
55550;BME280;41397;49.972;18.944;2022-12-05T03:47:06;102312.63;;;2.18;100.00
55550;BME280;41397;49.972;18.944;2022-12-05T03:50:24;102303.98;;;2.03;100.00
55550;BME280;41397;49.972;18.944;2022-12-05T03:53:28;102297.25;;;2.20;100.00
55550;BME280;41397;49.972;18.944;2022-12-05T03:56:44;102286.34;;;2.27;100.00
55550;BME280;41397;49.972;18.944;2022-12-05T04:00:10;102286.22;;;2.31;100.00
55550;BME280;41397;49.972;18.944;2022-12-05T04:03:08;102295.88;;;2.41;100.00
55550;BME280;41397;49.972;18.944;2022-12-05T04:09:36;102284.86;;;2.12;100.00
55550;BME280;41397;49.972;18.944;2022-12-05T04:12:40;102289.48;;;2.07;100.00
55550;BME280;41397;49.972;18.944;2022-12-05T04:15:52;102289.29;;;2.16;100.00
55550;BME280;41397;49.972;18.944;2022-12-05T04:19:16;102282.86;;;2.21;100.00
55550;BME280;41397;49.972;18.944;2022-12-05T04:22:20;102287.93;;;1.96;100.00
55550;BME280;41397;49.972;18.944;2022-12-05T04:25:24;102276.74;;;2.13;100.00
55550;BME280;41397;49.972;18.944;2022-12-05T04:31:51;102276.92;;;2.06;100.00
55550;BME280;41397;49.972;18.944;2022-12-05T04:35:02;102274.15;;;2.09;100.00
55550;BME280;41397;49.972;18.944;2022-12-05T04:38:11;102287.87;;;1.99;100.00
55550;BME280;41397;49.972;18.944;2022-12-05T04:41:16;102266.15;;;2.04;100.00
55550;BME280;41397;49.972;18.944;2022-12-05T04:44:27;102288.59;;;2.06;100.00
55550;BME280;41397;49.972;18.944;2022-12-05T04:47:35;102279.56;;;2.07;100.00
55550;BME280;41397;49.972;18.944;2022-12-05T04:50:38;102281.05;;;2.20;100.00
55550;BME280;41397;49.972;18.944;2022-12-05T04:53:50;102268.32;;;2.27;100.00
55550;BME280;41397;49.972;18.944;2022-12-05T04:57:18;102266.48;;;2.29;100.00
55550;BME280;41397;49.972;18.944;2022-12-05T05:00:04;102278.09;;;2.33;100.00
55550;BME280;41397;49.972;18.944;2022-12-05T05:06:18;102276.04;;;2.05;100.00
55550;BME280;41397;49.972;18.944;2022-12-05T05:09:19;102267.01;;;2.06;100.00
55550;BME280;41397;49.972;18.944;2022-12-05T05:12:20;102264.30;;;2.06;100.00
55550;BME280;41397;49.972;18.944;2022-12-05T05:15:21;102265.41;;;1.97;100.00
55550;BME280;41397;49.972;18.944;2022-12-05T05:18:23;102258.81;;;2.11;100.00
55550;BME280;41397;49.972;18.944;2022-12-05T05:21:29;102262.48;;;2.07;100.00
55550;BME280;41397;49.972;18.944;2022-12-05T05:24:30;102266.20;;;2.03;100.00
55550;BME280;41397;49.972;18.944;2022-12-05T05:27:32;102256.92;;;2.14;100.00
55550;BME280;41397;49.972;18.944;2022-12-05T05:30:33;102267.09;;;2.03;100.00
55550;BME280;41397;49.972;18.944;2022-12-05T05:33:35;102248.90;;;2.11;100.00
55550;BME280;41397;49.972;18.944;2022-12-05T05:36:37;102233.51;;;2.15;100.00
55550;BME280;41397;49.972;18.944;2022-12-05T05:39:39;102254.70;;;1.94;100.00
55550;BME280;41397;49.972;18.944;2022-12-05T05:42:44;102243.73;;;2.02;100.00
55550;BME280;41397;49.972;18.944;2022-12-05T05:45:46;102246.35;;;2.05;100.00
55550;BME280;41397;49.972;18.944;2022-12-05T05:48:47;102240.73;;;2.14;100.00
55550;BME280;41397;49.972;18.944;2022-12-05T05:51:49;102237.07;;;2.17;100.00
55550;BME280;41397;49.972;18.944;2022-12-05T05:54:50;102243.60;;;2.07;100.00
55550;BME280;41397;49.972;18.944;2022-12-05T05:57:52;102239.16;;;2.04;100.00
55550;BME280;41397;49.972;18.944;2022-12-05T06:00:53;102246.67;;;1.91;100.00
55550;BME280;41397;49.972;18.944;2022-12-05T06:03:54;102234.86;;;1.95;100.00
55550;BME280;41397;49.972;18.944;2022-12-05T06:06:56;102242.79;;;2.03;100.00
55550;BME280;41397;49.972;18.944;2022-12-05T06:09:58;102254.71;;;1.93;100.00
55550;BME280;41397;49.972;18.944;2022-12-05T06:12:59;102250.10;;;1.98;100.00
55550;BME280;41397;49.972;18.944;2022-12-05T06:16:01;102264.55;;;1.95;100.00
55550;BME280;41397;49.972;18.944;2022-12-05T06:19:02;102255.33;;;2.06;100.00
55550;BME280;41397;49.972;18.944;2022-12-05T06:22:06;102263.52;;;2.01;100.00
55550;BME280;41397;49.972;18.944;2022-12-05T06:25:08;102267.06;;;2.05;100.00
55550;BME280;41397;49.972;18.944;2022-12-05T06:28:10;102255.26;;;2.09;100.00
55550;BME280;41397;49.972;18.944;2022-12-05T06:31:14;102262.38;;;2.13;100.00
55550;BME280;41397;49.972;18.944;2022-12-05T06:34:16;102261.19;;;2.25;100.00
55550;BME280;41397;49.972;18.944;2022-12-05T06:37:18;102277.38;;;2.25;100.00
55550;BME280;41397;49.972;18.944;2022-12-05T06:40:19;102275.57;;;2.25;100.00
55550;BME280;41397;49.972;18.944;2022-12-05T06:43:21;102274.77;;;2.21;100.00
55550;BME280;41397;49.972;18.944;2022-12-05T06:46:23;102268.82;;;2.06;100.00
55550;BME280;41397;49.972;18.944;2022-12-05T06:49:26;102266.94;;;2.09;100.00
55550;BME280;41397;49.972;18.944;2022-12-05T06:52:32;102265.33;;;2.00;100.00
55550;BME280;41397;49.972;18.944;2022-12-05T06:55:34;102271.62;;;2.01;100.00
55550;BME280;41397;49.972;18.944;2022-12-05T06:58:35;102261.59;;;2.08;100.00
55550;BME280;41397;49.972;18.944;2022-12-05T07:01:36;102272.16;;;2.17;100.00
55550;BME280;41397;49.972;18.944;2022-12-05T07:04:42;102275.66;;;2.20;100.00
55550;BME280;41397;49.972;18.944;2022-12-05T07:07:44;102276.86;;;2.07;100.00
55550;BME280;41397;49.972;18.944;2022-12-05T07:10:52;102282.09;;;2.15;100.00
55550;BME280;41397;49.972;18.944;2022-12-05T07:13:57;102284.92;;;2.10;100.00
55550;BME280;41397;49.972;18.944;2022-12-05T07:16:59;102295.97;;;1.98;100.00
55550;BME280;41397;49.972;18.944;2022-12-05T07:20:00;102289.78;;;1.93;100.00
55550;BME280;41397;49.972;18.944;2022-12-05T07:23:02;102296.13;;;1.90;100.00
55550;BME280;41397;49.972;18.944;2022-12-05T07:26:07;102311.37;;;1.93;100.00
55550;BME280;41397;49.972;18.944;2022-12-05T07:29:09;102297.80;;;1.96;100.00
55550;BME280;41397;49.972;18.944;2022-12-05T07:32:10;102302.16;;;2.03;100.00
55550;BME280;41397;49.972;18.944;2022-12-05T07:35:12;102299.30;;;2.11;100.00
55550;BME280;41397;49.972;18.944;2022-12-05T07:38:13;102301.59;;;1.87;100.00
55550;BME280;41397;49.972;18.944;2022-12-05T07:41:20;102318.55;;;1.94;100.00
55550;BME280;41397;49.972;18.944;2022-12-05T07:44:22;102313.16;;;1.94;100.00
55550;BME280;41397;49.972;18.944;2022-12-05T07:47:23;102301.88;;;1.75;100.00
55550;BME280;41397;49.972;18.944;2022-12-05T07:50:25;102305.11;;;1.91;100.00
55550;BME280;41397;49.972;18.944;2022-12-05T07:53:26;102295.80;;;2.06;100.00
55550;BME280;41397;49.972;18.944;2022-12-05T07:56:28;102300.48;;;1.97;100.00
55550;BME280;41397;49.972;18.944;2022-12-05T07:59:29;102297.38;;;2.16;100.00
55550;BME280;41397;49.972;18.944;2022-12-05T08:02:30;102298.19;;;2.19;100.00
55550;BME280;41397;49.972;18.944;2022-12-05T08:05:33;102294.55;;;2.22;100.00
55550;BME280;41397;49.972;18.944;2022-12-05T08:08:34;102281.27;;;2.13;100.00
55550;BME280;41397;49.972;18.944;2022-12-05T08:11:36;102276.92;;;2.06;100.00
55550;BME280;41397;49.972;18.944;2022-12-05T08:14:39;102305.83;;;1.99;100.00
55550;BME280;41397;49.972;18.944;2022-12-05T08:17:40;102305.32;;;1.82;100.00
55550;BME280;41397;49.972;18.944;2022-12-05T08:20:42;102304.78;;;2.06;100.00
55550;BME280;41397;49.972;18.944;2022-12-05T08:23:43;102299.01;;;2.23;100.00
55550;BME280;41397;49.972;18.944;2022-12-05T08:26:47;102303.35;;;2.30;100.00
55550;BME280;41397;49.972;18.944;2022-12-05T08:29:48;102301.30;;;2.40;100.00
55550;BME280;41397;49.972;18.944;2022-12-05T08:32:49;102298.51;;;2.44;100.00
55550;BME280;41397;49.972;18.944;2022-12-05T08:35:51;102308.27;;;2.50;100.00
55550;BME280;41397;49.972;18.944;2022-12-05T08:39:00;102301.30;;;2.40;100.00
55550;BME280;41397;49.972;18.944;2022-12-05T08:42:02;102304.70;;;2.48;100.00
55550;BME280;41397;49.972;18.944;2022-12-05T08:45:04;102301.03;;;2.52;100.00
55550;BME280;41397;49.972;18.944;2022-12-05T08:48:05;102298.06;;;2.63;100.00
55550;BME280;41397;49.972;18.944;2022-12-05T08:51:09;102303.29;;;2.71;100.00
55550;BME280;41397;49.972;18.944;2022-12-05T08:54:12;102314.19;;;2.66;100.00
55550;BME280;41397;49.972;18.944;2022-12-05T08:57:13;102302.24;;;2.76;100.00
55550;BME280;41397;49.972;18.944;2022-12-05T09:00:15;102299.29;;;2.85;100.00
55550;BME280;41397;49.972;18.944;2022-12-05T09:03:16;102289.88;;;2.66;100.00
55550;BME280;41397;49.972;18.944;2022-12-05T09:06:20;102290.83;;;2.65;100.00
55550;BME280;41397;49.972;18.944;2022-12-05T09:09:22;102295.80;;;2.82;100.00
55550;BME280;41397;49.972;18.944;2022-12-05T09:12:24;102290.55;;;2.76;100.00
55550;BME280;41397;49.972;18.944;2022-12-05T09:15:25;102282.38;;;2.79;100.00
55550;BME280;41397;49.972;18.944;2022-12-05T09:18:26;102293.59;;;2.98;100.00
55550;BME280;41397;49.972;18.944;2022-12-05T09:21:29;102278.27;;;2.98;100.00
55550;BME280;41397;49.972;18.944;2022-12-05T09:24:31;102286.55;;;2.91;100.00
55550;BME280;41397;49.972;18.944;2022-12-05T09:27:32;102280.30;;;2.88;100.00
55550;BME280;41397;49.972;18.944;2022-12-05T09:30:34;102278.95;;;3.06;100.00
55550;BME280;41397;49.972;18.944;2022-12-05T09:33:36;102271.89;;;3.01;100.00
55550;BME280;41397;49.972;18.944;2022-12-05T09:36:38;102280.17;;;2.95;100.00
55550;BME280;41397;49.972;18.944;2022-12-05T09:39:39;102265.05;;;2.86;100.00
55550;BME280;41397;49.972;18.944;2022-12-05T09:46:03;102275.86;;;3.20;100.00
55550;BME280;41397;49.972;18.944;2022-12-05T09:49:08;102272.37;;;3.17;100.00
55550;BME280;41397;49.972;18.944;2022-12-05T09:52:26;102264.88;;;3.26;100.00
55550;BME280;41397;49.972;18.944;2022-12-05T09:55:22;102268.54;;;3.24;100.00
55550;BME280;41397;49.972;18.944;2022-12-05T09:58:50;102264.84;;;3.28;100.00
55550;BME280;41397;49.972;18.944;2022-12-05T10:01:42;102269.20;;;3.33;100.00
55550;BME280;41397;49.972;18.944;2022-12-05T10:04:54;102260.92;;;3.38;100.00
55550;BME280;41397;49.972;18.944;2022-12-05T10:17:49;102238.11;;;3.48;99.90
55550;BME280;41397;49.972;18.944;2022-12-05T10:21:03;102240.55;;;3.58;99.66
55550;BME280;41397;49.972;18.944;2022-12-05T10:24:11;102249.90;;;3.46;99.66
55550;BME280;41397;49.972;18.944;2022-12-05T10:27:20;102250.48;;;3.26;99.63
55550;BME280;41397;49.972;18.944;2022-12-05T10:30:26;102240.36;;;3.32;100.00
55550;BME280;41397;49.972;18.944;2022-12-05T10:33:35;102231.55;;;3.26;100.00
55550;BME280;41397;49.972;18.944;2022-12-05T10:36:37;102242.56;;;3.18;100.00
55550;BME280;41397;49.972;18.944;2022-12-05T10:39:38;102247.38;;;3.40;100.00
55550;BME280;41397;49.972;18.944;2022-12-05T10:42:45;102238.27;;;3.44;100.00
55550;BME280;41397;49.972;18.944;2022-12-05T10:45:47;102238.11;;;3.48;100.00
55550;BME280;41397;49.972;18.944;2022-12-05T10:48:49;102230.80;;;3.52;100.00
55550;BME280;41397;49.972;18.944;2022-12-05T10:51:50;102226.78;;;3.36;100.00
55550;BME280;41397;49.972;18.944;2022-12-05T10:55:01;102239.90;;;3.49;100.00
55550;BME280;41397;49.972;18.944;2022-12-05T10:58:14;102226.88;;;3.62;100.00
55550;BME280;41397;49.972;18.944;2022-12-05T11:01:16;102229.56;;;3.64;100.00
55550;BME280;41397;49.972;18.944;2022-12-05T11:10:42;102227.66;;;3.95;99.68
55550;BME280;41397;49.972;18.944;2022-12-05T11:13:56;102248.27;;;4.01;99.79
55550;BME280;41397;49.972;18.944;2022-12-05T11:16:59;102233.78;;;4.02;99.54
55550;BME280;41397;49.972;18.944;2022-12-05T11:23:26;102238.13;;;4.08;99.29
55550;BME280;41397;49.972;18.944;2022-12-05T11:26:36;102235.95;;;4.19;99.00
55550;BME280;41397;49.972;18.944;2022-12-05T11:29:38;102230.30;;;4.27;98.89
55550;BME280;41397;49.972;18.944;2022-12-05T11:32:39;102236.38;;;4.33;98.43
55550;BME280;41397;49.972;18.944;2022-12-05T11:35:41;102240.53;;;4.45;98.14
55550;BME280;41397;49.972;18.944;2022-12-05T11:38:43;102247.67;;;4.48;97.90
55550;BME280;41397;49.972;18.944;2022-12-05T11:45:09;102242.96;;;4.53;97.21
55550;BME280;41397;49.972;18.944;2022-12-05T11:54:54;102245.69;;;4.79;97.04
55550;BME280;41397;49.972;18.944;2022-12-05T12:04:43;102247.00;;;4.94;96.05
55550;BME280;41397;49.972;18.944;2022-12-05T12:11:16;102235.28;;;5.19;95.11
55550;BME280;41397;49.972;18.944;2022-12-05T12:17:42;102229.14;;;5.14;93.72
55550;BME280;41397;49.972;18.944;2022-12-05T12:20:51;102231.49;;;5.23;93.80
55550;BME280;41397;49.972;18.944;2022-12-05T12:24:03;102227.34;;;5.12;93.71
55550;BME280;41397;49.972;18.944;2022-12-05T12:30:27;102228.78;;;5.23;93.52
55550;BME280;41397;49.972;18.944;2022-12-05T12:40:12;102199.78;;;5.25;93.40
55550;BME280;41397;49.972;18.944;2022-12-05T12:49:51;102202.34;;;5.29;92.98
55550;BME280;41397;49.972;18.944;2022-12-05T12:56:17;102201.55;;;5.26;93.27
55550;BME280;41397;49.972;18.944;2022-12-05T13:05:53;102207.57;;;5.34;92.89
55550;BME280;41397;49.972;18.944;2022-12-05T13:09:04;102213.12;;;5.31;92.98
55550;BME280;41397;49.972;18.944;2022-12-05T13:12:10;102213.83;;;5.36;92.79
55550;BME280;41397;49.972;18.944;2022-12-05T13:15:19;102217.70;;;5.29;92.92
55550;BME280;41397;49.972;18.944;2022-12-05T13:18:24;102218.66;;;5.28;92.93
55550;BME280;41397;49.972;18.944;2022-12-05T13:21:27;102227.55;;;5.31;93.30
55550;BME280;41397;49.972;18.944;2022-12-05T13:24:29;102217.42;;;5.37;92.75
55550;BME280;41397;49.972;18.944;2022-12-05T13:27:30;102223.73;;;5.37;93.02
55550;BME280;41397;49.972;18.944;2022-12-05T13:30:32;102231.59;;;5.45;92.65
55550;BME280;41397;49.972;18.944;2022-12-05T13:33:49;102233.38;;;5.46;92.67
55550;BME280;41397;49.972;18.944;2022-12-05T13:36:50;102236.26;;;5.41;92.98
55550;BME280;41397;49.972;18.944;2022-12-05T13:40:08;102232.59;;;5.42;92.46
55550;BME280;41397;49.972;18.944;2022-12-05T13:43:26;102235.14;;;5.47;92.57
55550;BME280;41397;49.972;18.944;2022-12-05T13:46:33;102234.90;;;5.53;92.58
55550;BME280;41397;49.972;18.944;2022-12-05T13:49:45;102236.14;;;5.44;92.60
55550;BME280;41397;49.972;18.944;2022-12-05T13:52:53;102228.63;;;5.27;92.23
55550;BME280;41397;49.972;18.944;2022-12-05T13:56:01;102230.88;;;5.40;93.35
55550;BME280;41397;49.972;18.944;2022-12-05T13:59:03;102224.45;;;5.42;92.96
55550;BME280;41397;49.972;18.944;2022-12-05T14:08:50;102237.61;;;5.29;93.05
55550;BME280;41397;49.972;18.944;2022-12-05T14:21:40;102244.27;;;5.44;92.67
55550;BME280;41397;49.972;18.944;2022-12-05T14:24:54;102247.14;;;5.40;92.76
55550;BME280;41397;49.972;18.944;2022-12-05T14:34:26;102235.66;;;5.33;92.55
55550;BME280;41397;49.972;18.944;2022-12-05T14:37:49;102238.13;;;5.39;92.63
55550;BME280;41397;49.972;18.944;2022-12-05T14:40:46;102240.92;;;5.38;92.57
55550;BME280;41397;49.972;18.944;2022-12-05T14:43:55;102243.71;;;5.34;92.53
55550;BME280;41397;49.972;18.944;2022-12-05T14:46:59;102241.91;;;5.35;92.52
55550;BME280;41397;49.972;18.944;2022-12-05T14:56:40;102241.23;;;5.28;93.06
55550;BME280;41397;49.972;18.944;2022-12-05T15:02:58;102234.89;;;5.29;93.00
55550;BME280;41397;49.972;18.944;2022-12-05T15:06:10;102228.78;;;5.23;92.77
55550;BME280;41397;49.972;18.944;2022-12-05T15:09:29;102227.75;;;5.27;93.29
55550;BME280;41397;49.972;18.944;2022-12-05T15:15:53;102225.96;;;5.26;93.23
55550;BME280;41397;49.972;18.944;2022-12-05T15:19:04;102222.25;;;5.28;93.35
55550;BME280;41397;49.972;18.944;2022-12-05T15:22:08;102232.45;;;5.22;93.28
55550;BME280;41397;49.972;18.944;2022-12-05T15:25:21;102211.52;;;5.25;93.44
55550;BME280;41397;49.972;18.944;2022-12-05T15:28:25;102212.39;;;5.26;93.56
55550;BME280;41397;49.972;18.944;2022-12-05T15:31:29;102213.99;;;5.31;93.64
55550;BME280;41397;49.972;18.944;2022-12-05T15:37:52;102211.28;;;5.31;93.54
55550;BME280;41397;49.972;18.944;2022-12-05T15:40:54;102205.73;;;5.34;93.48
55550;BME280;41397;49.972;18.944;2022-12-05T15:43:57;102199.44;;;5.34;93.70
55550;BME280;41397;49.972;18.944;2022-12-05T15:46:58;102202.26;;;5.31;93.67
55550;BME280;41397;49.972;18.944;2022-12-05T15:49:59;102210.16;;;5.37;93.19
55550;BME280;41397;49.972;18.944;2022-12-05T15:56:38;102203.94;;;5.35;93.55
55550;BME280;41397;49.972;18.944;2022-12-05T15:59:35;102198.71;;;5.29;93.76
55550;BME280;41397;49.972;18.944;2022-12-05T16:02:44;102204.97;;;5.31;93.77
55550;BME280;41397;49.972;18.944;2022-12-05T16:05:54;102197.72;;;5.31;93.59
55550;BME280;41397;49.972;18.944;2022-12-05T16:08:58;102195.08;;;5.30;93.74
55550;BME280;41397;49.972;18.944;2022-12-05T16:12:03;102188.70;;;5.31;93.90
55550;BME280;41397;49.972;18.944;2022-12-05T16:18:24;102191.17;;;5.37;93.84
55550;BME280;41397;49.972;18.944;2022-12-05T16:21:36;102190.97;;;5.43;93.69
55550;BME280;41397;49.972;18.944;2022-12-05T16:24:41;102194.44;;;5.47;93.49
55550;BME280;41397;49.972;18.944;2022-12-05T16:31:00;102192.67;;;5.46;93.20
55550;BME280;41397;49.972;18.944;2022-12-05T16:34:06;102180.99;;;5.44;93.23
55550;BME280;41397;49.972;18.944;2022-12-05T16:40:21;102190.72;;;5.49;93.04
55550;BME280;41397;49.972;18.944;2022-12-05T16:46:41;102182.30;;;5.57;92.87
55550;BME280;41397;49.972;18.944;2022-12-05T16:49:42;102188.48;;;5.61;92.84
55550;BME280;41397;49.972;18.944;2022-12-05T16:52:47;102187.52;;;5.62;92.68
55550;BME280;41397;49.972;18.944;2022-12-05T16:55:52;102198.29;;;5.65;92.71
55550;BME280;41397;49.972;18.944;2022-12-05T16:58:53;102192.66;;;5.69;92.70
55550;BME280;41397;49.972;18.944;2022-12-05T17:01:55;102200.63;;;5.74;92.87
55550;BME280;41397;49.972;18.944;2022-12-05T17:04:58;102201.52;;;5.74;92.45
55550;BME280;41397;49.972;18.944;2022-12-05T17:08:03;102201.63;;;5.71;92.40
55550;BME280;41397;49.972;18.944;2022-12-05T17:11:04;102195.21;;;5.74;92.62
55550;BME280;41397;49.972;18.944;2022-12-05T17:14:12;102195.08;;;5.77;92.31
55550;BME280;41397;49.972;18.944;2022-12-05T17:17:14;102202.18;;;5.81;92.41
55550;BME280;41397;49.972;18.944;2022-12-05T17:20:18;102202.97;;;5.83;92.25
55550;BME280;41397;49.972;18.944;2022-12-05T17:23:20;102203.68;;;5.88;92.21
55550;BME280;41397;49.972;18.944;2022-12-05T17:26:21;102202.76;;;5.89;92.14
55550;BME280;41397;49.972;18.944;2022-12-05T17:29:23;102202.76;;;5.89;92.04
55550;BME280;41397;49.972;18.944;2022-12-05T17:32:24;102207.15;;;5.92;92.41
55550;BME280;41397;49.972;18.944;2022-12-05T17:35:27;102201.72;;;5.92;91.82
55550;BME280;41397;49.972;18.944;2022-12-05T17:38:29;102198.98;;;5.93;92.13
55550;BME280;41397;49.972;18.944;2022-12-05T17:41:31;102207.97;;;5.95;91.94
55550;BME280;41397;49.972;18.944;2022-12-05T17:44:32;102213.32;;;5.97;91.80
55550;BME280;41397;49.972;18.944;2022-12-05T17:47:34;102208.68;;;6.00;91.74
55550;BME280;41397;49.972;18.944;2022-12-05T17:50:35;102207.84;;;5.98;91.68
55550;BME280;41397;49.972;18.944;2022-12-05T17:53:37;102214.15;;;5.99;91.54
55550;BME280;41397;49.972;18.944;2022-12-05T17:56:38;102217.83;;;5.98;92.13
55550;BME280;41397;49.972;18.944;2022-12-05T17:59:40;102206.77;;;6.03;91.49
55550;BME280;41397;49.972;18.944;2022-12-05T18:02:43;102213.98;;;6.04;91.53
55550;BME280;41397;49.972;18.944;2022-12-05T18:05:45;102216.62;;;6.05;91.67
55550;BME280;41397;49.972;18.944;2022-12-05T18:08:46;102217.52;;;6.06;91.81
55550;BME280;41397;49.972;18.944;2022-12-05T18:11:49;102208.30;;;6.10;91.74
55550;BME280;41397;49.972;18.944;2022-12-05T18:14:51;102207.41;;;6.09;91.41
55550;BME280;41397;49.972;18.944;2022-12-05T18:17:52;102199.19;;;6.11;91.60
55550;BME280;41397;49.972;18.944;2022-12-05T18:21:08;102194.71;;;6.10;91.17
55550;BME280;41397;49.972;18.944;2022-12-05T18:24:10;102186.73;;;6.05;91.13
55550;BME280;41397;49.972;18.944;2022-12-05T18:27:11;102190.16;;;6.10;91.25
55550;BME280;41397;49.972;18.944;2022-12-05T18:30:12;102190.16;;;6.10;91.38
55550;BME280;41397;49.972;18.944;2022-12-05T18:33:14;102200.09;;;6.11;91.29
55550;BME280;41397;49.972;18.944;2022-12-05T18:36:19;102191.25;;;6.06;91.14
55550;BME280;41397;49.972;18.944;2022-12-05T18:39:21;102188.41;;;6.09;91.14
55550;BME280;41397;49.972;18.944;2022-12-05T18:42:22;102193.96;;;6.06;90.98
55550;BME280;41397;49.972;18.944;2022-12-05T18:45:23;102199.26;;;6.09;91.39